Time;durP1;ratioP1;P1;durP2;ratioP2;P2;SDS_P1;SDS_P2;PMS_P1;PMS_P2;Temp;Humidity;BMP_temperature;BMP_pressure;BME280_temperature;BME280_humidity;BME280_pressure;Samples;Min_cycle;Max_cycle;Signal;HPM_P1;HPM_P2
2022/01/01 00:01:30;;;;;;;20.85;10.68;;;10.40;99.90;;;;;;5035190;28;20495;-85
2022/01/01 00:03:55;;;;;;;24.35;11.05;;;10.40;99.90;;;;;;5035321;28;20045;-85
2022/01/01 00:06:21;;;;;;;30.58;12.93;;;10.00;99.90;;;;;;5001130;28;20120;-84
2022/01/01 00:08:47;;;;;;;26.48;14.20;;;10.50;99.90;;;;;;5035112;28;20110;-85
2022/01/01 00:11:13;;;;;;;21.60;11.45;;;10.20;99.90;;;;;;5017802;28;20045;-85
2022/01/01 00:13:39;;;;;;;29.38;13.48;;;10.60;99.90;;;;;;5017450;28;20041;-84
2022/01/01 00:16:09;;;;;;;24.10;12.35;;;10.00;99.90;;;;;;5017397;28;20053;-84
2022/01/01 00:18:40;;;;;;;26.17;11.30;;;10.40;99.90;;;;;;5000926;28;20202;-84
2022/01/01 00:21:07;;;;;;;26.83;12.18;;;10.50;99.90;;;;;;5034809;28;20108;-84
2022/01/01 00:23:33;;;;;;;34.67;16.17;;;10.70;99.90;;;;;;5034730;28;20415;-85
2022/01/01 00:25:59;;;;;;;24.08;11.50;;;10.30;99.90;;;;;;5016907;28;20376;-84
2022/01/01 00:28:25;;;;;;;31.17;16.23;;;10.20;99.90;;;;;;5034032;28;20088;-85
2022/01/01 00:30:51;;;;;;;32.08;15.70;;;10.60;99.90;;;;;;5016888;28;20088;-85
2022/01/01 00:33:17;;;;;;;30.38;15.48;;;10.30;99.90;;;;;;5017288;28;20057;-85
2022/01/01 00:35:42;;;;;;;35.13;17.42;;;10.60;99.90;;;;;;5016885;28;20496;-85
2022/01/01 00:38:08;;;;;;;52.08;23.58;;;10.50;99.90;;;;;;5000467;28;20404;-84
2022/01/01 00:40:34;;;;;;;47.13;24.20;;;9.90;99.90;;;;;;5016751;28;20466;-85
2022/01/01 00:43:03;;;;;;;46.20;23.30;;;10.50;99.90;;;;;;5017119;28;20126;-85
2022/01/01 00:45:29;;;;;;;46.28;22.60;;;10.50;99.90;;;;;;5034589;28;20069;-85
2022/01/01 00:47:55;;;;;;;39.88;21.27;;;9.90;99.90;;;;;;5017067;28;20492;-84
2022/01/01 00:50:21;;;;;;;49.90;22.45;;;10.50;99.90;;;;;;5016680;28;20500;-85
2022/01/01 00:52:49;;;;;;;41.08;20.02;;;10.50;99.90;;;;;;5016594;28;20046;-85
2022/01/01 00:55:14;;;;;;;39.85;19.27;;;10.40;99.90;;;;;;5016604;28;20045;-85
2022/01/01 00:57:40;;;;;;;36.83;17.27;;;10.50;99.90;;;;;;5034438;28;20068;-84
2022/01/01 01:00:07;;;;;;;32.05;16.60;;;10.40;99.90;;;;;;5016555;28;20045;-84
2022/01/01 01:02:32;;;;;;;32.40;14.07;;;9.90;99.90;;;;;;5034147;28;20053;-85
2022/01/01 01:04:58;;;;;;;27.50;14.98;;;10.10;99.90;;;;;;5034123;28;20054;-85
2022/01/01 01:07:24;;;;;;;31.55;14.48;;;9.90;99.90;;;;;;5034039;28;20037;-85
2022/01/01 01:09:50;;;;;;;29.67;12.52;;;10.40;99.90;;;;;;5033186;28;20045;-83
2022/01/01 01:12:21;;;;;;;28.48;12.55;;;10.10;99.90;;;;;;5041425;28;20042;-82
2022/01/01 01:14:47;;;;;;;26.30;12.48;;;9.80;99.90;;;;;;5040747;28;20045;-84
2022/01/01 01:17:13;;;;;;;33.72;14.38;;;9.80;99.90;;;;;;5023605;28;20049;-84
2022/01/01 01:19:39;;;;;;;28.67;12.52;;;9.80;99.90;;;;;;5023635;28;20049;-84
2022/01/01 01:22:05;;;;;;;26.77;12.02;;;9.90;99.90;;;;;;5038834;28;20048;-83
2022/01/01 01:24:32;;;;;;;22.40;10.70;;;9.70;99.90;;;;;;5018157;28;20070;-83
2022/01/01 01:27:01;;;;;;;26.13;12.57;;;10.20;99.90;;;;;;5039687;28;20116;-83
2022/01/01 01:29:29;;;;;;;32.90;11.85;;;9.70;99.90;;;;;;5044521;28;20105;-83
2022/01/01 01:31:55;;;;;;;25.67;11.00;;;9.70;99.90;;;;;;5025703;28;20075;-82
2022/01/01 01:34:21;;;;;;;22.10;10.50;;;10.20;99.90;;;;;;5014873;28;20053;-85
2022/01/01 01:36:47;;;;;;;31.08;11.73;;;9.70;99.90;;;;;;5022097;28;20144;-82
2022/01/01 01:39:12;;;;;;;25.42;11.95;;;9.90;99.90;;;;;;5042755;28;20471;-90
2022/01/01 01:41:41;;;;;;;28.40;11.02;;;9.90;99.90;;;;;;5044256;28;20049;-88
2022/01/01 01:44:35;;;;;;;26.98;11.40;;;9.60;99.90;;;;;;5024207;28;20044;-83
2022/01/01 01:47:03;;;;;;;26.30;10.60;;;9.30;99.90;;;;;;5023465;28;20095;-85
2022/01/01 01:49:29;;;;;;;32.47;12.48;;;9.60;99.90;;;;;;5020305;28;20045;-85
2022/01/01 01:51:56;;;;;;;26.23;10.88;;;9.60;99.90;;;;;;5040040;28;20045;-84
2022/01/01 01:54:22;;;;;;;23.23;10.52;;;9.60;99.90;;;;;;5022874;28;20049;-84
2022/01/01 01:56:48;;;;;;;28.63;9.70;;;9.70;99.90;;;;;;5022918;28;20045;-84
2022/01/01 01:59:15;;;;;;;19.88;8.00;;;10.10;99.90;;;;;;5041831;28;20449;-85
2022/01/01 02:01:41;;;;;;;26.85;11.48;;;9.50;99.90;;;;;;5020154;28;20050;-84
2022/01/01 02:04:06;;;;;;;23.02;9.73;;;10.10;99.90;;;;;;5029410;28;20169;-84
2022/01/01 02:06:34;;;;;;;20.05;8.90;;;9.50;99.90;;;;;;5036258;28;20095;-84
2022/01/01 02:09:00;;;;;;;26.95;10.40;;;9.50;99.90;;;;;;5035875;28;20049;-84
2022/01/01 02:11:27;;;;;;;27.40;10.30;;;9.90;99.90;;;;;;5024989;28;20040;-84
2022/01/01 02:18:50;;;;;;;22.60;10.43;;;9.50;99.90;;;;;;5022071;28;20515;-85
2022/01/01 02:21:16;;;;;;;27.52;10.40;;;9.50;99.90;;;;;;5021884;28;20053;-84
2022/01/01 02:23:44;;;;;;;21.90;9.23;;;10.00;99.90;;;;;;5036867;28;20381;-84
2022/01/01 02:26:12;;;;;;;24.52;9.77;;;9.10;99.90;;;;;;5042801;28;20045;-84
2022/01/01 02:28:48;;;;;;;26.77;10.00;;;9.70;99.90;;;;;;5022225;28;20072;-85
2022/01/01 02:31:15;;;;;;;26.13;9.73;;;10.20;99.90;;;;;;5024299;28;20080;-84
2022/01/01 02:33:43;;;;;;;24.15;9.73;;;9.40;99.90;;;;;;5039970;28;20156;-84
2022/01/01 02:36:09;;;;;;;21.90;8.38;;;9.40;99.90;;;;;;5039628;28;20049;-84
2022/01/01 02:38:36;;;;;;;30.73;11.32;;;9.50;99.90;;;;;;5022002;28;20080;-84
2022/01/01 02:41:02;;;;;;;35.13;12.15;;;9.40;99.90;;;;;;5039981;28;20041;-84
2022/01/01 02:43:28;;;;;;;32.53;11.32;;;9.50;99.90;;;;;;5022173;28;20045;-84
2022/01/01 02:45:54;;;;;;;37.83;14.18;;;9.60;99.90;;;;;;4986111;28;20500;-84
2022/01/01 02:48:20;;;;;;;40.13;14.32;;;9.80;99.90;;;;;;5018615;28;20554;-84
2022/01/01 02:50:46;;;;;;;33.65;14.13;;;10.40;99.90;;;;;;5023111;28;20482;-84
2022/01/01 02:53:13;;;;;;;31.35;13.93;;;9.60;99.90;;;;;;5025765;28;20088;-84
2022/01/01 02:55:40;;;;;;;42.38;18.27;;;9.60;99.90;;;;;;5043542;28;20064;-85
2022/01/01 02:58:06;;;;;;;36.25;16.27;;;10.50;99.90;;;;;;5024133;28;20123;-84
2022/01/01 03:00:31;;;;;;;27.95;13.15;;;9.70;99.90;;;;;;5044786;28;20457;-85
2022/01/01 03:02:57;;;;;;;34.72;15.93;;;9.70;99.90;;;;;;5025879;28;20068;-84
2022/01/01 03:05:23;;;;;;;46.65;16.73;;;10.10;99.90;;;;;;5025899;28;20033;-84
2022/01/01 03:07:48;;;;;;;36.17;14.73;;;10.10;99.90;;;;;;5046504;28;20483;-85
2022/01/01 03:10:14;;;;;;;50.05;20.05;;;10.30;99.90;;;;;;5022729;28;20105;-84
2022/01/01 03:12:40;;;;;;;41.85;18.50;;;9.80;99.90;;;;;;5043181;28;20506;-84
2022/01/01 03:15:06;;;;;;;37.33;15.65;;;10.30;99.90;;;;;;5025689;28;20038;-85
2022/01/01 03:17:31;;;;;;;41.90;16.98;;;9.80;99.90;;;;;;5043269;28;20116;-84
2022/01/01 03:19:57;;;;;;;42.25;18.17;;;10.10;99.90;;;;;;5025970;28;20100;-84
2022/01/01 03:22:23;;;;;;;43.88;17.05;;;10.30;99.90;;;;;;5025592;28;20057;-84
2022/01/01 03:24:49;;;;;;;34.60;13.95;;;10.40;99.90;;;;;;5028021;28;20045;-84
2022/01/01 03:27:14;;;;;;;34.35;13.73;;;10.10;99.90;;;;;;5040347;28;20052;-84
2022/01/01 03:29:40;;;;;;;39.53;14.38;;;10.40;99.90;;;;;;5029704;28;20044;-85
2022/01/01 03:32:06;;;;;;;39.05;13.50;;;9.90;99.90;;;;;;5025400;28;20567;-85
2022/01/01 03:34:32;;;;;;;41.65;14.93;;;9.90;99.90;;;;;;5025376;28;20045;-84
2022/01/01 03:36:58;;;;;;;42.10;15.30;;;10.40;99.90;;;;;;5024551;28;20514;-85
2022/01/01 03:39:23;;;;;;;41.95;15.57;;;10.40;99.90;;;;;;5042794;28;20037;-85
2022/01/01 03:41:49;;;;;;;47.13;17.30;;;10.60;99.90;;;;;;5049604;28;20602;-85
2022/01/01 03:44:15;;;;;;;30.30;13.05;;;10.30;99.90;;;;;;5024875;28;20044;-85
2022/01/01 03:46:41;;;;;;;34.28;13.63;;;10.50;99.90;;;;;;5043537;28;20129;-85
2022/01/01 03:49:06;;;;;;;40.15;14.20;;;9.90;99.90;;;;;;5046170;28;20029;-84
2022/01/01 03:51:32;;;;;;;35.47;15.20;;;9.60;99.90;;;;;;5026673;28;20049;-84
2022/01/01 03:53:58;;;;;;;39.58;14.45;;;10.10;99.90;;;;;;5045624;28;20040;-85
2022/01/01 03:56:24;;;;;;;35.85;13.80;;;9.90;99.90;;;;;;5028234;28;20048;-85
2022/01/01 03:58:49;;;;;;;32.33;13.70;;;9.90;99.90;;;;;;5026221;28;20147;-84
2022/01/01 04:01:15;;;;;;;44.50;16.67;;;9.90;99.90;;;;;;5037245;28;20124;-85
2022/01/01 04:03:41;;;;;;;36.22;13.88;;;9.90;99.90;;;;;;5023325;28;20495;-84
2022/01/01 04:06:07;;;;;;;43.60;16.70;;;9.90;99.90;;;;;;5028098;28;20510;-85
2022/01/01 04:08:32;;;;;;;41.92;16.40;;;10.00;99.90;;;;;;5021081;28;20041;-85
2022/01/01 04:10:58;;;;;;;36.47;15.73;;;10.70;99.90;;;;;;5043606;28;20053;-84
2022/01/01 04:13:24;;;;;;;44.53;15.13;;;10.20;99.90;;;;;;5046247;28;20033;-85
2022/01/01 04:15:50;;;;;;;36.45;14.07;;;10.20;99.90;;;;;;5044049;28;20048;-85
2022/01/01 04:18:25;;;;;;;33.10;12.32;;;10.50;99.90;;;;;;5042392;28;20192;-85
2022/01/01 04:20:51;;;;;;;22.98;11.25;;;10.20;99.90;;;;;;5007734;28;20045;-85
2022/01/01 04:23:17;;;;;;;26.02;10.75;;;10.40;99.90;;;;;;5042079;28;20052;-85
2022/01/01 04:25:44;;;;;;;25.27;10.90;;;10.60;99.90;;;;;;5024170;28;20123;-84
2022/01/01 04:28:10;;;;;;;29.63;11.38;;;10.50;99.90;;;;;;5029887;28;20092;-84
2022/01/01 04:30:36;;;;;;;37.15;12.95;;;9.90;99.90;;;;;;5027357;28;20071;-84
2022/01/01 04:33:02;;;;;;;34.15;12.35;;;10.50;99.90;;;;;;5037896;28;20033;-84
2022/01/01 04:35:28;;;;;;;46.50;15.77;;;9.90;99.90;;;;;;5027279;28;20052;-84
2022/01/01 04:37:54;;;;;;;37.08;11.93;;;10.20;99.90;;;;;;5044046;28;20041;-84
2022/01/01 04:40:19;;;;;;;33.47;11.40;;;10.30;99.90;;;;;;5024087;28;20049;-84
2022/01/01 04:42:45;;;;;;;40.47;13.32;;;9.90;99.90;;;;;;5041703;28;20116;-84
2022/01/01 04:45:11;;;;;;;35.90;14.23;;;10.20;99.90;;;;;;5041856;28;20046;-84
2022/01/01 04:47:37;;;;;;;34.35;13.98;;;9.90;99.90;;;;;;5023057;28;20052;-85
2022/01/01 04:50:04;;;;;;;32.60;12.38;;;9.90;99.90;;;;;;5043177;28;20037;-84
2022/01/01 04:52:31;;;;;;;27.58;11.10;;;9.90;99.90;;;;;;5045808;28;20041;-84
2022/01/01 04:54:57;;;;;;;34.83;12.45;;;10.20;99.90;;;;;;5026394;28;20052;-84
2022/01/01 04:57:29;;;;;;;27.38;10.70;;;9.90;99.90;;;;;;5007279;28;20487;-85
2022/01/01 04:59:54;;;;;;;37.83;14.40;;;10.10;99.90;;;;;;5023429;28;20045;-85
2022/01/01 05:02:20;;;;;;;33.20;11.57;;;10.10;99.90;;;;;;5040848;28;20048;-85
2022/01/01 05:04:45;;;;;;;41.38;14.27;;;10.50;99.90;;;;;;5044509;28;20077;-85
2022/01/01 05:07:11;;;;;;;35.72;14.57;;;10.00;99.90;;;;;;5041741;28;20045;-84
2022/01/01 05:09:37;;;;;;;37.60;13.35;;;10.50;99.90;;;;;;5023746;28;20045;-85
2022/01/01 05:12:03;;;;;;;34.88;12.93;;;9.90;99.90;;;;;;5024457;28;20439;-84
2022/01/01 05:14:30;;;;;;;33.53;13.40;;;9.90;99.90;;;;;;5044208;28;20037;-84
2022/01/01 05:16:56;;;;;;;46.70;14.95;;;10.00;99.90;;;;;;5044174;28;20048;-85
2022/01/01 05:19:22;;;;;;;30.15;12.63;;;10.00;99.90;;;;;;5023310;28;20103;-84
2022/01/01 05:21:48;;;;;;;36.85;14.82;;;9.80;99.90;;;;;;5033167;28;20041;-85
2022/01/01 05:24:18;;;;;;;31.70;13.23;;;10.00;99.90;;;;;;5042812;28;20037;-85
2022/01/01 05:26:44;;;;;;;37.25;14.60;;;10.60;99.90;;;;;;5044504;28;20477;-85
2022/01/01 05:29:10;;;;;;;39.42;16.08;;;10.00;99.90;;;;;;5041346;28;20411;-85
2022/01/01 05:31:36;;;;;;;31.77;16.58;;;10.20;99.90;;;;;;5039621;28;20044;-85
2022/01/01 05:34:03;;;;;;;45.05;18.83;;;10.70;99.90;;;;;;5023170;28;20092;-84
2022/01/01 05:36:29;;;;;;;53.00;19.58;;;10.30;99.90;;;;;;5022621;28;20045;-85
2022/01/01 05:38:55;;;;;;;46.80;19.60;;;10.10;99.90;;;;;;5022937;28;20045;-84
2022/01/01 05:41:21;;;;;;;45.10;19.95;;;10.70;99.90;;;;;;5022832;28;20049;-84
2022/01/01 05:43:47;;;;;;;48.00;20.30;;;10.40;99.90;;;;;;5022654;28;20041;-84
2022/01/01 05:46:13;;;;;;;44.17;18.00;;;10.20;99.90;;;;;;5023410;28;20042;-85
2022/01/01 05:48:38;;;;;;;56.97;23.48;;;10.20;99.90;;;;;;5044167;28;20399;-84
2022/01/01 05:51:04;;;;;;;50.17;22.65;;;10.20;99.90;;;;;;5025762;28;20585;-84
2022/01/01 05:53:30;;;;;;;43.72;20.30;;;10.60;99.90;;;;;;5041115;28;20080;-85
2022/01/01 05:55:56;;;;;;;47.30;20.95;;;10.20;99.90;;;;;;5022983;28;20085;-84
2022/01/01 05:58:21;;;;;;;51.45;22.10;;;10.70;99.90;;;;;;5029338;28;20044;-84
2022/01/01 06:00:47;;;;;;;47.38;21.92;;;10.20;99.90;;;;;;5022753;28;20407;-85
2022/01/01 06:03:15;;;;;;;54.97;24.40;;;10.80;99.90;;;;;;5040412;28;20064;-84
2022/01/01 06:05:41;;;;;;;45.55;21.05;;;10.20;99.90;;;;;;5022346;28;20060;-85
2022/01/01 06:08:07;;;;;;;46.08;19.42;;;10.70;99.90;;;;;;5040392;28;20033;-84
2022/01/01 06:10:33;;;;;;;50.22;22.90;;;10.50;99.90;;;;;;5025003;28;20044;-85
2022/01/01 06:12:58;;;;;;;35.15;18.85;;;10.50;99.90;;;;;;5025991;28;20045;-84
2022/01/01 06:15:24;;;;;;;43.40;17.05;;;10.60;99.90;;;;;;5041949;28;20139;-84
2022/01/01 06:17:50;;;;;;;34.25;14.85;;;10.60;99.90;;;;;;5022274;28;20052;-84
2022/01/01 06:20:16;;;;;;;34.08;16.73;;;10.20;99.90;;;;;;5039756;28;20038;-84
2022/01/01 06:22:42;;;;;;;35.58;14.73;;;10.30;99.90;;;;;;5027347;28;20114;-84
2022/01/01 06:25:09;;;;;;;31.27;14.02;;;10.10;99.90;;;;;;5042746;28;20045;-85
2022/01/01 06:27:34;;;;;;;33.45;13.45;;;10.70;99.90;;;;;;5040330;28;20510;-85
2022/01/01 06:30:00;;;;;;;24.30;10.52;;;10.10;99.90;;;;;;5039850;28;20033;-84
2022/01/01 06:32:29;;;;;;;23.20;9.88;;;10.60;99.90;;;;;;5018461;28;20108;-84
2022/01/01 06:34:55;;;;;;;34.10;11.98;;;10.20;99.90;;;;;;5039760;28;20104;-85
2022/01/01 06:37:20;;;;;;;32.13;13.00;;;10.20;99.90;;;;;;5039459;28;20464;-84
2022/01/01 06:39:46;;;;;;;29.23;12.43;;;10.10;99.90;;;;;;5042977;28;20055;-84
2022/01/01 06:42:12;;;;;;;27.63;11.70;;;10.10;99.90;;;;;;5036341;28;20038;-85
2022/01/01 06:44:37;;;;;;;29.25;11.80;;;10.10;99.90;;;;;;5041577;28;20106;-84
2022/01/01 06:47:03;;;;;;;27.77;11.70;;;10.70;99.90;;;;;;5025592;28;20035;-84
2022/01/01 06:49:29;;;;;;;29.00;11.15;;;10.10;99.90;;;;;;5033991;28;20125;-84
2022/01/01 06:51:54;;;;;;;36.42;12.25;;;10.10;99.90;;;;;;5038775;28;20083;-84
2022/01/01 06:54:20;;;;;;;28.15;12.02;;;10.50;99.90;;;;;;5034936;28;20034;-84
2022/01/01 06:56:46;;;;;;;28.42;9.63;;;9.70;99.90;;;;;;5024383;28;20092;-84
2022/01/01 06:59:12;;;;;;;28.40;11.00;;;10.10;99.90;;;;;;5042938;28;20045;-84
2022/01/01 07:01:37;;;;;;;29.52;12.45;;;10.10;99.90;;;;;;5033936;28;20134;-84
2022/01/01 07:04:03;;;;;;;32.55;12.55;;;10.10;99.90;;;;;;5042895;28;20037;-84
2022/01/01 07:06:31;;;;;;;29.10;12.02;;;10.10;99.90;;;;;;5024686;28;20052;-85
2022/01/01 07:08:56;;;;;;;32.25;10.90;;;10.90;99.90;;;;;;5014580;28;20040;-84
2022/01/01 07:11:22;;;;;;;28.63;11.38;;;10.10;99.90;;;;;;5040355;28;20077;-85
2022/01/01 07:13:48;;;;;;;32.28;11.60;;;10.10;99.90;;;;;;5024034;28;20049;-85
2022/01/01 07:16:13;;;;;;;24.48;9.23;;;10.50;99.90;;;;;;5025400;28;20091;-84
2022/01/01 07:18:39;;;;;;;26.33;11.02;;;10.10;99.90;;;;;;5023847;28;20076;-85
2022/01/01 07:21:05;;;;;;;32.15;11.90;;;10.50;99.90;;;;;;5022314;28;20045;-84
2022/01/01 07:23:30;;;;;;;29.17;10.23;;;10.70;99.90;;;;;;5041746;28;20510;-85
2022/01/01 07:25:56;;;;;;;23.67;8.68;;;10.10;99.90;;;;;;5039539;28;20395;-85
2022/01/01 07:28:22;;;;;;;26.17;9.40;;;10.30;99.90;;;;;;5022010;28;20102;-85
2022/01/01 07:30:47;;;;;;;22.30;9.73;;;10.20;99.90;;;;;;5021132;28;20449;-85
2022/01/01 07:33:14;;;;;;;20.95;9.75;;;10.60;99.90;;;;;;5021502;28;20037;-84
2022/01/01 07:35:40;;;;;;;26.40;10.43;;;10.80;99.90;;;;;;5039211;28;20519;-85
2022/01/01 07:38:06;;;;;;;24.40;9.20;;;10.70;99.90;;;;;;5027426;28;20052;-85
2022/01/01 07:40:34;;;;;;;27.55;10.35;;;10.20;99.90;;;;;;5046467;28;20033;-85
2022/01/01 07:43:01;;;;;;;25.63;10.23;;;10.30;99.90;;;;;;5025790;28;20064;-84
2022/01/01 07:45:27;;;;;;;25.00;9.43;;;10.30;99.90;;;;;;5046944;28;20076;-84
2022/01/01 07:47:53;;;;;;;31.58;12.02;;;10.80;99.90;;;;;;5026177;28;20041;-84
2022/01/01 07:50:19;;;;;;;27.15;10.63;;;10.90;99.90;;;;;;5042618;28;20038;-84
2022/01/01 07:52:45;;;;;;;27.50;11.52;;;10.40;99.90;;;;;;5025363;28;20128;-85
2022/01/01 07:55:11;;;;;;;22.60;9.93;;;10.40;99.90;;;;;;5050018;28;20494;-84
2022/01/01 07:57:37;;;;;;;25.35;9.30;;;10.40;99.90;;;;;;5042891;28;20095;-84
2022/01/01 08:00:04;;;;;;;32.83;10.43;;;10.90;99.90;;;;;;5044562;28;20049;-84
2022/01/01 08:02:30;;;;;;;21.08;7.15;;;10.40;99.90;;;;;;5045569;28;20096;-84
2022/01/01 08:04:56;;;;;;;16.20;6.72;;;11.00;99.90;;;;;;5021358;28;20136;-84
2022/01/01 08:07:21;;;;;;;18.15;6.13;;;11.00;99.90;;;;;;5018405;28;20045;-84
2022/01/01 08:09:47;;;;;;;28.08;11.38;;;10.90;99.90;;;;;;5024505;28;20045;-84
2022/01/01 08:12:12;;;;;;;23.02;9.80;;;9.80;99.90;;;;;;5028930;28;20090;-84
2022/01/01 08:14:38;;;;;;;27.80;9.82;;;10.90;99.90;;;;;;5045914;28;20048;-84
2022/01/01 08:17:06;;;;;;;20.70;8.95;;;11.00;99.90;;;;;;5043389;28;20124;-84
2022/01/01 08:19:32;;;;;;;21.42;8.13;;;10.90;99.90;;;;;;5026888;28;20045;-84
2022/01/01 08:21:58;;;;;;;27.27;10.43;;;11.10;99.90;;;;;;5043890;28;20174;-84
2022/01/01 08:24:25;;;;;;;23.85;8.27;;;10.60;99.90;;;;;;5041981;28;20133;-84
2022/01/01 08:26:51;;;;;;;37.38;13.07;;;11.10;99.90;;;;;;5042041;28;20406;-84
2022/01/01 08:29:17;;;;;;;28.58;10.30;;;11.20;99.90;;;;;;5026677;28;20041;-84
2022/01/01 08:31:42;;;;;;;23.23;9.75;;;10.70;99.90;;;;;;5045338;28;20037;-84
2022/01/01 08:34:08;;;;;;;28.60;10.75;;;11.00;99.90;;;;;;5042962;28;20107;-84
2022/01/01 08:36:34;;;;;;;27.85;11.07;;;10.70;99.90;;;;;;5005650;28;20049;-85
2022/01/01 08:39:00;;;;;;;35.13;12.80;;;10.80;99.90;;;;;;5026401;28;20057;-84
2022/01/01 08:41:25;;;;;;;27.50;12.88;;;10.80;99.90;;;;;;5036912;28;20052;-85
2022/01/01 08:43:52;;;;;;;26.08;10.20;;;11.00;99.90;;;;;;5024249;28;20045;-84
2022/01/01 08:46:18;;;;;;;29.92;11.25;;;11.30;99.90;;;;;;5026812;28;20049;-84
2022/01/01 08:48:44;;;;;;;29.77;11.75;;;11.40;99.90;;;;;;5020617;28;20048;-84
2022/01/01 08:51:15;;;;;;;31.45;12.30;;;11.60;99.90;;;;;;5023648;28;20082;-84
2022/01/01 08:53:41;;;;;;;34.88;14.00;;;10.90;99.90;;;;;;5041206;28;20491;-84
2022/01/01 08:56:07;;;;;;;27.85;11.88;;;11.50;99.90;;;;;;5042215;28;20080;-84
2022/01/01 08:58:34;;;;;;;30.25;13.15;;;11.60;99.90;;;;;;5044437;28;20037;-84
2022/01/01 09:01:00;;;;;;;30.23;13.00;;;11.00;99.90;;;;;;5038134;28;20223;-84
2022/01/01 09:03:26;;;;;;;29.70;12.48;;;11.50;99.90;;;;;;5017926;28;20512;-84
2022/01/01 09:05:53;;;;;;;35.03;12.13;;;11.50;99.90;;;;;;5039301;28;20039;-85
2022/01/01 09:08:18;;;;;;;33.38;12.98;;;12.00;99.90;;;;;;5041121;28;20053;-84
2022/01/01 09:10:44;;;;;;;33.13;14.23;;;11.30;99.90;;;;;;5026798;28;20033;-83
2022/01/01 09:13:10;;;;;;;33.28;13.45;;;11.20;99.90;;;;;;5025312;28;20074;-84
2022/01/01 09:15:35;;;;;;;31.33;13.52;;;11.20;99.90;;;;;;5023548;28;20053;-86
2022/01/01 09:18:01;;;;;;;31.52;13.85;;;11.10;99.90;;;;;;5039037;28;20044;-82
2022/01/01 09:20:27;;;;;;;28.55;12.93;;;11.30;99.90;;;;;;5044809;28;20036;-82
2022/01/01 09:22:52;;;;;;;17.23;10.05;;;11.30;99.90;;;;;;5041072;28;20124;-83
2022/01/01 09:25:18;;;;;;;27.48;12.95;;;11.30;99.90;;;;;;5039245;28;20040;-84
2022/01/01 09:27:44;;;;;;;30.08;13.93;;;11.30;99.90;;;;;;5025836;28;20060;-82
2022/01/01 09:30:10;;;;;;;29.83;13.00;;;11.50;99.90;;;;;;5036891;28;20461;-82
2022/01/01 09:32:36;;;;;;;23.52;11.68;;;11.40;99.90;;;;;;5035392;28;20500;-82
2022/01/01 09:35:02;;;;;;;30.58;12.75;;;11.70;99.90;;;;;;5036537;28;20127;-82
2022/01/01 09:37:29;;;;;;;28.83;11.70;;;11.40;99.90;;;;;;5032483;28;20521;-81
2022/01/01 09:39:57;;;;;;;26.55;11.68;;;11.50;99.90;;;;;;5040852;28;20050;-82
2022/01/01 09:42:23;;;;;;;25.65;12.93;;;11.70;99.90;;;;;;5043746;28;20491;-82
2022/01/01 09:44:51;;;;;;;27.77;12.88;;;11.90;99.90;;;;;;5044396;28;20048;-82
2022/01/01 09:47:17;;;;;;;31.52;13.73;;;12.30;99.90;;;;;;5034820;28;20037;-82
2022/01/01 09:49:43;;;;;;;30.77;15.40;;;11.60;99.90;;;;;;5043763;28;20049;-82
2022/01/01 09:52:09;;;;;;;33.25;13.85;;;11.70;99.90;;;;;;5042280;28;20087;-82
2022/01/01 09:54:36;;;;;;;27.33;13.73;;;12.20;99.90;;;;;;5040471;28;20045;-82
2022/01/01 09:57:02;;;;;;;29.65;13.65;;;12.00;99.90;;;;;;5018570;28;20057;-85
2022/01/01 09:59:28;;;;;;;30.25;14.18;;;11.80;99.90;;;;;;5042915;28;20045;-82
2022/01/01 10:01:54;;;;;;;29.20;12.20;;;12.40;99.90;;;;;;5038423;28;20045;-82
2022/01/01 10:04:19;;;;;;;22.42;11.10;;;11.90;99.90;;;;;;5020216;28;20050;-83
2022/01/01 10:07:01;;;;;;;25.50;11.40;;;12.50;99.90;;;;;;5037838;28;20128;-82
2022/01/01 10:09:32;;;;;;;25.63;11.05;;;12.30;99.90;;;;;;5040000;28;20077;-82
2022/01/01 10:11:58;;;;;;;26.02;12.55;;;12.00;99.90;;;;;;5041191;28;20554;-82
2022/01/01 10:14:34;;;;;;;22.92;10.65;;;12.50;99.90;;;;;;5043677;28;20071;-83
2022/01/01 10:17:00;;;;;;;22.85;9.73;;;12.30;99.90;;;;;;5041606;28;20051;-82
2022/01/01 10:19:31;;;;;;;20.83;9.35;;;12.10;99.90;;;;;;5040299;28;20511;-83
2022/01/01 10:22:02;;;;;;;19.83;9.95;;;12.10;99.90;;;;;;5016929;28;20049;-82
2022/01/01 10:27:42;;;;;;;23.25;9.35;;;12.10;99.90;;;;;;4998868;28;20198;-83
2022/01/01 10:29:57;;;;;;;22.30;8.73;;;12.20;99.90;;;;;;5015948;28;20385;-85
2022/01/01 10:32:24;;;;;;;19.38;9.13;;;12.50;99.90;;;;;;5018300;28;20041;-86
2022/01/01 10:34:50;;;;;;;21.48;8.40;;;12.30;99.90;;;;;;5019321;28;20040;-89
2022/01/01 10:37:16;;;;;;;18.92;8.18;;;12.50;99.90;;;;;;5029509;28;21511;-83
2022/01/01 10:39:52;;;;;;;18.17;7.85;;;12.60;99.90;;;;;;5031547;28;20072;-81
2022/01/01 10:42:18;;;;;;;16.27;6.72;;;12.30;99.90;;;;;;5028730;28;20551;-83
2022/01/01 10:44:50;;;;;;;20.33;7.18;;;12.30;99.90;;;;;;5037029;28;20037;-80
2022/01/01 10:47:27;;;;;;;16.63;7.18;;;12.30;99.90;;;;;;5033414;28;20038;-84
2022/01/01 10:50:14;;;;;;;15.15;5.93;;;12.40;99.90;;;;;;5040609;28;20098;-80
2022/01/01 10:52:47;;;;;;;19.70;6.88;;;12.60;99.90;;;;;;5014969;28;20136;-82
2022/01/01 10:55:16;;;;;;;17.30;7.00;;;13.20;99.90;;;;;;5037477;28;20462;-82
2022/01/01 10:57:51;;;;;;;17.25;6.28;;;12.50;99.90;;;;;;5047351;28;20049;-83
2022/01/01 11:00:24;;;;;;;;;;;12.50;99.90;;;;;;5033688;28;20435;-83
2022/01/01 11:02:49;;;;;;;13.88;6.03;;;12.50;99.90;;;;;;5023208;28;19924;-83
2022/01/01 11:05:24;;;;;;;11.32;6.03;;;12.60;99.90;;;;;;5038580;28;20511;-84
2022/01/01 11:07:52;;;;;;;12.23;5.30;;;12.50;99.90;;;;;;5040082;28;20131;-84
2022/01/01 11:10:19;;;;;;;10.43;5.57;;;12.90;99.90;;;;;;5036970;28;20037;-85
2022/01/01 11:12:46;;;;;;;13.25;6.13;;;13.00;99.90;;;;;;5046548;28;20079;-84
2022/01/01 11:15:12;;;;;;;10.38;5.70;;;12.50;99.90;;;;;;5043356;28;20121;-84
2022/01/01 11:17:38;;;;;;;14.82;6.95;;;13.00;99.90;;;;;;5042757;28;20052;-84
2022/01/01 11:20:06;;;;;;;14.43;5.88;;;12.60;99.90;;;;;;5039906;28;20045;-86
2022/01/01 11:22:32;;;;;;;15.10;6.60;;;12.50;99.90;;;;;;5018194;28;20060;-83
2022/01/01 11:24:59;;;;;;;12.20;5.95;;;12.50;99.90;;;;;;5044916;28;20033;-82
2022/01/01 11:27:26;;;;;;;13.55;5.40;;;12.50;99.90;;;;;;5025167;28;20099;-84
2022/01/01 11:29:53;;;;;;;16.52;6.28;;;12.60;99.90;;;;;;5043354;28;20037;-82
2022/01/01 11:32:22;;;;;;;15.70;5.75;;;12.60;99.90;;;;;;5027302;28;20045;-81
2022/01/01 11:34:52;;;;;;;12.75;4.75;;;12.60;99.90;;;;;;5047586;28;20072;-83
2022/01/01 11:37:22;;;;;;;12.50;5.40;;;12.60;99.90;;;;;;5043855;28;20041;-82
2022/01/01 11:39:53;;;;;;;16.17;5.55;;;12.60;99.90;;;;;;5042034;28;20041;-81
2022/01/01 11:42:19;;;;;;;9.90;4.45;;;12.70;99.90;;;;;;5045623;28;20037;-86
2022/01/01 11:44:55;;;;;;;10.10;5.32;;;12.70;99.90;;;;;;5038342;28;20033;-82
2022/01/01 11:47:23;;;;;;;13.45;4.70;;;12.70;99.90;;;;;;5042735;28;20475;-85
2022/01/01 11:49:52;;;;;;;6.63;3.92;;;12.80;99.90;;;;;;5028261;28;20033;-85
2022/01/01 11:53:00;;;;;;;10.18;4.50;;;12.80;99.90;;;;;;5017388;28;20045;-84
2022/01/01 11:55:26;;;;;;;7.60;3.80;;;12.80;99.90;;;;;;4955321;28;20111;-84
2022/01/01 11:57:57;;;;;;;7.18;3.28;;;12.70;99.90;;;;;;4977573;28;20050;-84
2022/01/01 12:00:24;;;;;;;13.65;4.80;;;12.70;99.90;;;;;;4955019;28;20047;-85
2022/01/01 12:02:51;;;;;;;10.07;3.90;;;12.70;99.90;;;;;;4969543;28;20058;-81
2022/01/01 12:05:22;;;;;;;10.70;4.55;;;13.20;99.90;;;;;;4957906;28;20043;-86
2022/01/01 12:07:57;;;;;;;11.35;3.88;;;12.90;99.90;;;;;;4979071;28;20090;-83
2022/01/01 12:10:25;;;;;;;8.85;3.85;;;12.80;99.90;;;;;;4976200;28;20509;-82
2022/01/01 12:13:11;;;;;;;11.23;3.47;;;12.90;99.90;;;;;;4957810;28;20065;-84
2022/01/01 12:15:41;;;;;;;7.32;3.40;;;12.80;99.90;;;;;;4973448;28;20422;-85
2022/01/01 12:18:12;;;;;;;12.25;4.93;;;12.80;99.90;;;;;;4973062;28;20181;-83
2022/01/01 12:20:41;;;;;;;8.50;3.40;;;12.80;99.90;;;;;;4957269;28;20134;-83
2022/01/01 12:23:08;;;;;;;9.63;3.47;;;12.80;99.90;;;;;;4956465;28;20533;-82
2022/01/01 12:25:36;;;;;;;11.18;3.28;;;12.80;99.90;;;;;;4989899;28;20054;-83
2022/01/01 12:28:31;;;;;;;8.80;3.28;;;12.80;99.90;;;;;;5027629;28;20120;-85
2022/01/01 12:31:21;;;;;;;9.07;3.80;;;12.80;99.90;;;;;;4950022;28;20055;-83
2022/01/01 12:33:50;;;;;;;6.40;2.90;;;12.80;99.90;;;;;;4947116;29;20482;-84
2022/01/01 12:36:18;;;;;;;9.82;3.00;;;12.80;99.90;;;;;;4936471;29;20047;-84
2022/01/01 12:39:00;;;;;;;7.25;3.08;;;12.80;99.90;;;;;;4952825;29;20062;-84
2022/01/01 12:41:46;;;;;;;8.38;3.30;;;12.80;99.90;;;;;;4937506;29;20448;-83